Aviation Digital Data Service (ADDS)

Output produced by METARs form (2046 UTC 08 February 2023)
found at http://aviationweather.gov/metar/data/
 
METAR text: KARR 081952Z 17005KT 8SM CLR 04/M01 A3017 RMK AO2 SLP224 T00441011
Conditions at: KARR (CHICAGO/AURORA , IL, US) observed 1952 UTC 08 February 2023
Temperature: 4.4°C (40°F)
Dewpoint: -1.1°C (30°F) [RH = 67%]
Pressure (altimeter): 30.17 inches Hg (1021.8 mb)
[Sea-level pressure: 1022.4 mb]
Winds: from the S (170 degrees) at 6 MPH (5 knots; 2.6 m/s)
Visibility: 8 miles (13 km)
Ceiling: at least 12,000 feet AGL
Clouds: sky clear below 12,000 feet AGL
Weather: no significant weather observed at this time